createdAt,value
2022-10-13T00:00:36.458Z,100.00
2022-10-13T00:03:09.148Z,100.00
2022-10-13T00:05:44.054Z,100.00
2022-10-13T00:08:15.262Z,100.00
2022-10-13T00:10:48.264Z,100.00
2022-10-13T00:13:19.237Z,100.00
2022-10-13T00:15:52.578Z,100.00
2022-10-13T00:18:27.247Z,100.00
2022-10-13T00:20:58.424Z,100.00
2022-10-13T00:23:29.029Z,100.00
2022-10-13T00:26:07.100Z,100.00
2022-10-13T00:28:37.373Z,100.00
2022-10-13T00:31:17.058Z,100.00
2022-10-13T00:33:50.376Z,100.00
2022-10-13T00:36:22.257Z,100.00
2022-10-13T00:38:52.881Z,100.00
2022-10-13T00:41:24.172Z,100.00
2022-10-13T00:44:01.111Z,100.00
2022-10-13T00:46:33.692Z,100.00
2022-10-13T00:49:11.159Z,100.00
2022-10-13T00:51:46.700Z,100.00
2022-10-13T00:54:20.594Z,100.00
2022-10-13T00:56:53.245Z,100.00
2022-10-13T00:59:27.666Z,100.00
2022-10-13T01:01:58.988Z,100.00
2022-10-13T01:04:35.125Z,100.00
2022-10-13T01:07:06.861Z,100.00
2022-10-13T01:09:42.443Z,100.00
2022-10-13T01:12:23.479Z,100.00
2022-10-13T01:14:59.276Z,100.00
2022-10-13T01:17:37.823Z,100.00
2022-10-13T01:20:49.335Z,100.00
2022-10-13T01:23:50.509Z,100.00
2022-10-13T01:26:43.648Z,100.00
2022-10-13T01:29:39.271Z,100.00
2022-10-13T01:32:20.076Z,100.00
2022-10-13T01:34:56.673Z,100.00
2022-10-13T01:37:34.198Z,100.00
2022-10-13T01:40:09.992Z,100.00
2022-10-13T01:42:46.294Z,100.00
2022-10-13T01:45:24.763Z,100.00
2022-10-13T01:47:59.138Z,100.00
2022-10-13T01:50:29.809Z,100.00
2022-10-13T01:53:03.235Z,100.00
2022-10-13T01:55:33.532Z,100.00
2022-10-13T01:58:03.574Z,100.00
2022-10-13T02:00:44.080Z,100.00
2022-10-13T02:03:24.330Z,100.00
2022-10-13T02:06:05.572Z,100.00
2022-10-13T02:08:44.945Z,100.00
2022-10-13T02:11:18.500Z,100.00
2022-10-13T02:13:54.343Z,100.00
2022-10-13T02:16:25.964Z,100.00
2022-10-13T02:19:00.758Z,100.00
2022-10-13T02:21:31.288Z,100.00
2022-10-13T02:24:05.945Z,100.00
2022-10-13T02:26:37.053Z,100.00
2022-10-13T02:29:13.556Z,100.00
2022-10-13T02:31:45.090Z,100.00
2022-10-13T02:34:18.232Z,100.00
2022-10-13T02:36:49.815Z,100.00
2022-10-13T02:39:21.451Z,100.00
2022-10-13T02:41:51.445Z,100.00
2022-10-13T02:44:21.838Z,100.00
2022-10-13T02:46:52.032Z,100.00
2022-10-13T02:49:24.932Z,100.00
2022-10-13T02:51:55.447Z,100.00
2022-10-13T02:54:25.678Z,100.00
2022-10-13T02:56:56.202Z,100.00
2022-10-13T02:59:26.297Z,100.00
2022-10-13T03:01:56.974Z,100.00
2022-10-13T03:04:29.776Z,100.00
2022-10-13T03:07:02.485Z,100.00
2022-10-13T03:09:32.540Z,100.00
2022-10-13T03:12:02.821Z,100.00
2022-10-13T03:14:33.157Z,100.00
2022-10-13T03:17:04.090Z,100.00
2022-10-13T03:19:37.100Z,100.00
2022-10-13T03:22:07.495Z,100.00
2022-10-13T03:24:37.739Z,100.00
2022-10-13T03:27:08.107Z,100.00
2022-10-13T03:29:38.315Z,100.00
2022-10-13T03:32:08.721Z,100.00
2022-10-13T03:34:41.625Z,100.00
2022-10-13T03:37:12.071Z,100.00
2022-10-13T03:39:45.144Z,100.00
2022-10-13T03:42:18.551Z,100.00
2022-10-13T03:44:56.135Z,100.00
2022-10-13T03:47:27.071Z,100.00
2022-10-13T03:50:00.345Z,100.00
2022-10-13T03:52:30.639Z,100.00
2022-10-13T03:55:01.662Z,100.00
2022-10-13T03:57:34.995Z,100.00
2022-10-13T04:00:08.614Z,100.00
2022-10-13T04:02:42.757Z,100.00
2022-10-13T04:05:15.765Z,100.00
2022-10-13T04:07:45.731Z,100.00
2022-10-13T04:10:21.842Z,100.00
2022-10-13T04:12:52.721Z,100.00
2022-10-13T04:15:23.170Z,100.00
2022-10-13T04:17:53.259Z,100.00
2022-10-13T04:20:25.943Z,100.00
2022-10-13T04:22:56.730Z,100.00
2022-10-13T04:25:29.573Z,100.00
2022-10-13T04:27:59.574Z,100.00
2022-10-13T04:30:30.155Z,100.00
2022-10-13T04:33:00.486Z,100.00
2022-10-13T04:35:33.310Z,100.00
2022-10-13T04:38:03.623Z,100.00
2022-10-13T04:40:33.859Z,100.00
2022-10-13T04:43:04.198Z,100.00
2022-10-13T04:45:34.907Z,100.00
2022-10-13T04:48:33.309Z,100.00
2022-10-13T04:51:10.249Z,100.00
2022-10-13T04:53:47.487Z,100.00
2022-10-13T04:56:21.014Z,100.00
2022-10-13T04:58:51.334Z,100.00
2022-10-13T05:01:23.806Z,100.00
2022-10-13T05:03:55.472Z,100.00
2022-10-13T05:06:31.423Z,100.00
2022-10-13T05:09:02.247Z,100.00
2022-10-13T05:11:32.979Z,100.00
2022-10-13T05:14:04.930Z,100.00
2022-10-13T05:16:35.686Z,100.00
2022-10-13T05:19:05.818Z,100.00
2022-10-13T05:21:38.408Z,100.00
2022-10-13T05:24:13.803Z,100.00
2022-10-13T05:26:44.615Z,100.00
2022-10-13T05:29:15.087Z,100.00
2022-10-13T05:31:45.186Z,100.00
2022-10-13T05:34:15.719Z,100.00
2022-10-13T05:36:48.855Z,100.00
2022-10-13T05:39:19.156Z,100.00
2022-10-13T05:41:49.621Z,100.00
2022-10-13T05:44:25.294Z,100.00
2022-10-13T05:46:59.583Z,100.00
2022-10-13T05:49:32.636Z,100.00
2022-10-13T05:52:10.517Z,100.00
2022-10-13T05:54:44.173Z,100.00
2022-10-13T05:57:19.818Z,100.00
2022-10-13T05:59:54.815Z,100.00
2022-10-13T06:02:28.077Z,100.00
2022-10-13T06:05:00.726Z,100.00
2022-10-13T06:07:34.617Z,100.00
2022-10-13T06:10:04.734Z,100.00
2022-10-13T06:12:38.147Z,100.00
2022-10-13T06:15:09.911Z,100.00
2022-10-13T06:17:40.852Z,100.00
2022-10-13T06:20:13.059Z,100.00
2022-10-13T06:22:46.704Z,100.00
2022-10-13T06:25:17.230Z,100.00
2022-10-13T06:27:47.508Z,100.00
2022-10-13T06:30:17.747Z,100.00
2022-10-13T06:32:47.938Z,100.00
2022-10-13T06:35:18.466Z,100.00
2022-10-13T06:37:53.531Z,100.00
2022-10-13T06:40:23.854Z,100.00
2022-10-13T06:42:54.342Z,100.00
2022-10-13T06:45:31.417Z,100.00
2022-10-13T06:48:01.935Z,100.00
2022-10-13T06:50:32.825Z,100.00
2022-10-13T06:53:05.600Z,100.00
2022-10-13T06:55:35.799Z,100.00
2022-10-13T06:58:05.925Z,100.00
2022-10-13T07:00:37.886Z,100.00
2022-10-13T07:03:08.657Z,100.00
2022-10-13T07:05:39.059Z,100.00
2022-10-13T07:08:12.492Z,100.00
2022-10-13T07:10:43.382Z,100.00
2022-10-13T07:13:13.796Z,100.00
2022-10-13T07:15:45.587Z,100.00
2022-10-13T07:18:15.891Z,100.00
2022-10-13T07:20:46.094Z,100.00
2022-10-13T07:23:19.412Z,100.00
2022-10-13T07:25:49.723Z,100.00
2022-10-13T07:28:20.433Z,100.00
2022-10-13T07:30:51.486Z,100.00
2022-10-13T07:33:21.885Z,100.00
2022-10-13T07:35:52.295Z,100.00
2022-10-13T07:38:25.415Z,100.00
2022-10-13T07:40:55.930Z,100.00
2022-10-13T07:43:26.686Z,100.00
2022-10-13T07:45:58.827Z,100.00
2022-10-13T07:48:31.322Z,100.00
2022-10-13T07:51:08.248Z,100.00
2022-10-13T07:53:42.137Z,100.00
2022-10-13T07:56:15.068Z,100.00
2022-10-13T07:58:47.797Z,100.00
2022-10-13T08:01:18.958Z,100.00
2022-10-13T08:03:50.597Z,100.00
2022-10-13T08:06:22.958Z,100.00
2022-10-13T08:09:00.785Z,100.00
2022-10-13T08:11:30.721Z,100.00
2022-10-13T08:14:02.752Z,100.00
2022-10-13T08:16:33.963Z,100.00
2022-10-13T08:19:04.561Z,100.00
2022-10-13T08:24:28.108Z,100.00
2022-10-13T08:26:58.575Z,100.00
2022-10-13T08:29:29.023Z,100.00
2022-10-13T08:31:59.776Z,100.00
2022-10-13T08:34:30.113Z,100.00
2022-10-13T08:37:00.611Z,100.00
2022-10-13T08:39:34.632Z,100.00
2022-10-13T08:42:05.186Z,100.00
2022-10-13T08:47:40.564Z,98.10
2022-10-13T08:50:18.124Z,100.00
2022-10-13T08:52:55.223Z,100.00
2022-10-13T08:55:35.687Z,98.88
2022-10-13T08:58:14.819Z,98.42
2022-10-13T09:00:45.552Z,97.82
2022-10-13T09:03:27.847Z,99.68
2022-10-13T09:06:14.566Z,96.78
2022-10-13T09:08:48.978Z,94.11
2022-10-13T09:11:22.129Z,96.67
2022-10-13T09:13:57.180Z,92.34
2022-10-13T09:16:39.499Z,91.95
2022-10-13T09:19:21.108Z,93.17
2022-10-13T09:21:51.915Z,90.17
2022-10-13T09:24:23.949Z,89.35
2022-10-13T09:27:10.318Z,88.07
2022-10-13T09:29:43.766Z,86.06
2022-10-13T09:32:18.673Z,87.56
2022-10-13T09:34:51.031Z,86.53
2022-10-13T09:37:23.884Z,85.41
2022-10-13T09:40:05.841Z,87.23
2022-10-13T09:42:39.616Z,86.90
2022-10-13T09:45:20.019Z,86.97
2022-10-13T09:47:55.189Z,88.10
2022-10-13T09:50:28.648Z,86.83
2022-10-13T09:53:19.225Z,87.72
2022-10-13T09:55:50.027Z,88.10
2022-10-13T09:58:31.262Z,88.67
2022-10-13T10:01:03.223Z,87.44
2022-10-13T10:03:37.785Z,87.12
2022-10-13T10:09:19.794Z,87.04
2022-10-13T10:11:53.981Z,87.94
2022-10-13T10:14:29.211Z,85.78
2022-10-13T10:17:08.208Z,85.75
2022-10-13T10:19:55.891Z,85.21
2022-10-13T10:22:36.254Z,84.44
2022-10-13T10:25:20.004Z,82.94
2022-10-13T10:28:05.799Z,84.25
2022-10-13T10:30:50.393Z,84.01
2022-10-13T10:33:25.289Z,84.27
2022-10-13T10:36:02.305Z,83.38
2022-10-13T10:38:41.661Z,83.91
2022-10-13T10:41:23.639Z,82.93
2022-10-13T10:43:58.678Z,84.20
2022-10-13T10:46:35.717Z,82.71
2022-10-13T10:49:14.403Z,84.65
2022-10-13T10:51:45.656Z,85.11
2022-10-13T10:54:34.917Z,83.13
2022-10-13T10:57:14.251Z,83.41
2022-10-13T10:59:54.980Z,82.96
2022-10-13T11:03:03.475Z,83.74
2022-10-13T11:06:03.235Z,85.92
2022-10-13T11:08:43.636Z,88.46
2022-10-13T11:11:37.476Z,85.73
2022-10-13T11:14:32.170Z,86.80
2022-10-13T11:17:14.092Z,85.62
2022-10-13T11:19:52.703Z,85.21
2022-10-13T11:22:25.148Z,81.62
2022-10-13T11:25:20.755Z,81.13
2022-10-13T11:27:51.162Z,83.34
2022-10-13T11:30:47.864Z,81.29
2022-10-13T11:33:48.684Z,81.31
2022-10-13T11:37:03.465Z,82.95
2022-10-13T11:40:18.367Z,82.56
2022-10-13T11:43:16.097Z,82.64
2022-10-13T11:46:18.160Z,81.22
2022-10-13T11:49:18.469Z,80.21
2022-10-13T11:52:10.071Z,79.13
2022-10-13T11:54:45.561Z,81.00
2022-10-13T11:57:34.157Z,81.56
2022-10-13T12:00:07.053Z,81.38
2022-10-13T12:02:52.636Z,79.29
2022-10-13T12:05:27.941Z,79.59
2022-10-13T12:08:02.303Z,79.27
2022-10-13T12:10:38.409Z,80.40
2022-10-13T12:13:25.028Z,80.65
2022-10-13T12:16:03.693Z,81.52
2022-10-13T12:18:38.399Z,79.02
2022-10-13T12:21:15.001Z,77.99
2022-10-13T12:23:45.914Z,81.08
2022-10-13T12:26:19.698Z,78.85
2022-10-13T12:28:55.913Z,78.74
2022-10-13T12:31:29.432Z,77.38
2022-10-13T12:34:00.215Z,78.05
2022-10-13T12:36:32.572Z,78.11
2022-10-13T12:39:06.743Z,77.64
2022-10-13T12:41:39.890Z,79.63
2022-10-13T12:44:18.048Z,81.33
2022-10-13T12:46:52.370Z,80.43
2022-10-13T12:49:26.105Z,81.00
2022-10-13T12:51:59.707Z,77.68
2022-10-13T12:54:32.591Z,81.16
2022-10-13T12:57:05.218Z,78.91
2022-10-13T12:59:45.687Z,81.19
2022-10-13T13:02:23.528Z,78.14
2022-10-13T13:04:54.521Z,80.02
2022-10-13T13:07:33.843Z,78.42
2022-10-13T13:10:22.820Z,77.84
2022-10-13T13:12:55.151Z,78.01
2022-10-13T13:15:44.799Z,80.19
2022-10-13T13:18:37.039Z,80.52
2022-10-13T13:21:10.597Z,81.03
2022-10-13T13:23:51.082Z,78.73
2022-10-13T13:26:28.257Z,80.67
2022-10-13T13:29:00.205Z,81.92
2022-10-13T13:31:33.554Z,82.24
2022-10-13T13:34:04.025Z,83.37
2022-10-13T13:36:34.532Z,79.55
2022-10-13T13:39:05.239Z,79.48
2022-10-13T13:41:35.702Z,79.53
2022-10-13T13:44:06.024Z,78.49
2022-10-13T13:46:39.227Z,81.98
2022-10-13T13:49:09.410Z,82.46
2022-10-13T13:51:39.779Z,83.59
2022-10-13T13:54:10.087Z,81.34
2022-10-13T13:56:40.783Z,81.68
2022-10-13T13:59:11.457Z,82.00
2022-10-13T14:01:44.695Z,82.80
2022-10-13T14:04:15.458Z,84.37
2022-10-13T14:06:45.791Z,84.59
2022-10-13T14:09:16.374Z,83.64
2022-10-13T14:11:47.130Z,86.21
2022-10-13T14:14:17.617Z,84.09
2022-10-13T14:16:50.546Z,83.60
2022-10-13T14:19:20.884Z,83.89
2022-10-13T14:21:51.580Z,83.50
2022-10-13T14:24:22.058Z,83.32
2022-10-13T14:26:52.375Z,85.21
2022-10-13T14:29:22.766Z,83.62
2022-10-13T14:31:55.823Z,83.58
2022-10-13T14:34:26.354Z,83.95
2022-10-13T14:36:56.784Z,87.50
2022-10-13T14:39:27.200Z,85.15
2022-10-13T14:41:58.389Z,86.61
2022-10-13T14:44:29.017Z,87.45
2022-10-13T14:47:02.208Z,88.46
2022-10-13T14:49:32.877Z,89.01
2022-10-13T14:52:03.968Z,91.95
2022-10-13T14:54:35.032Z,91.60
2022-10-13T14:57:06.441Z,91.54
2022-10-13T14:59:36.848Z,91.07
2022-10-13T15:02:10.103Z,92.31
2022-10-13T15:04:40.717Z,93.16
2022-10-13T15:07:11.064Z,95.11
2022-10-13T15:12:31.914Z,95.34
2022-10-13T15:15:02.475Z,96.74
2022-10-13T15:17:37.219Z,95.19
2022-10-13T15:20:09.007Z,96.03
2022-10-13T15:22:39.738Z,97.09
2022-10-13T15:25:13.227Z,98.95
2022-10-13T15:27:44.441Z,98.30
2022-10-13T15:30:15.704Z,99.33
2022-10-13T15:32:51.481Z,99.55
2022-10-13T15:35:22.183Z,100.00
2022-10-13T15:37:54.413Z,100.00
2022-10-13T15:40:24.756Z,100.00
2022-10-13T15:42:56.354Z,100.00
2022-10-13T15:45:28.794Z,100.00
2022-10-13T15:48:02.200Z,100.00
2022-10-13T15:50:32.899Z,100.00
2022-10-13T15:53:03.538Z,100.00
2022-10-13T15:55:35.171Z,100.00
2022-10-13T15:58:08.805Z,100.00
2022-10-13T16:00:43.760Z,100.00
2022-10-13T16:03:22.073Z,100.00
2022-10-13T16:05:52.463Z,100.00
2022-10-13T16:08:22.770Z,100.00
2022-10-13T16:10:53.228Z,100.00
2022-10-13T16:13:23.739Z,100.00
2022-10-13T16:16:00.793Z,100.00
2022-10-13T16:18:44.216Z,100.00
2022-10-13T16:21:18.572Z,100.00
2022-10-13T16:23:49.521Z,100.00
2022-10-13T16:26:20.254Z,100.00
2022-10-13T16:28:50.978Z,100.00
2022-10-13T16:31:24.479Z,100.00
2022-10-13T16:33:57.940Z,100.00
2022-10-13T16:36:28.453Z,100.00
2022-10-13T16:38:59.325Z,100.00
2022-10-13T16:41:29.695Z,100.00
2022-10-13T16:44:00.082Z,100.00
2022-10-13T16:46:30.397Z,100.00
2022-10-13T16:49:04.004Z,100.00
2022-10-13T16:51:34.304Z,100.00
2022-10-13T16:54:04.725Z,100.00
2022-10-13T16:56:35.893Z,100.00
2022-10-13T16:59:08.269Z,100.00
2022-10-13T17:01:40.807Z,100.00
2022-10-13T17:04:17.254Z,100.00
2022-10-13T17:06:50.344Z,100.00
2022-10-13T17:09:20.954Z,100.00
2022-10-13T17:11:51.051Z,100.00
2022-10-13T17:14:21.443Z,100.00
2022-10-13T17:16:55.438Z,100.00
2022-10-13T17:19:30.833Z,100.00
2022-10-13T17:22:01.216Z,100.00
2022-10-13T17:24:34.539Z,100.00
2022-10-13T17:27:05.606Z,100.00
2022-10-13T17:29:37.449Z,100.00
2022-10-13T17:32:08.529Z,100.00
2022-10-13T17:34:41.886Z,100.00
2022-10-13T17:37:13.291Z,100.00
2022-10-13T17:39:44.048Z,100.00
2022-10-13T17:42:14.745Z,100.00
2022-10-13T17:44:46.804Z,100.00
2022-10-13T17:47:17.324Z,100.00
2022-10-13T17:49:51.746Z,100.00
2022-10-13T17:52:23.905Z,100.00
2022-10-13T17:54:56.481Z,100.00
2022-10-13T17:57:27.253Z,100.00
2022-10-13T18:00:02.859Z,100.00
2022-10-13T18:02:42.706Z,100.00
2022-10-13T18:05:15.875Z,100.00
2022-10-13T18:07:46.009Z,100.00
2022-10-13T18:10:18.087Z,100.00
2022-10-13T18:12:48.855Z,100.00
2022-10-13T18:15:22.173Z,100.00
2022-10-13T18:17:52.455Z,100.00
2022-10-13T18:20:25.653Z,100.00
2022-10-13T18:22:56.850Z,100.00
2022-10-13T18:25:27.283Z,100.00
2022-10-13T18:27:57.612Z,100.00
2022-10-13T18:30:27.957Z,100.00
2022-10-13T18:32:57.961Z,100.00
2022-10-13T18:35:33.350Z,100.00
2022-10-13T18:41:49.395Z,100.00
2022-10-13T18:54:50.433Z,100.00
2022-10-13T18:57:27.912Z,100.00
2022-10-13T18:59:58.125Z,100.00
2022-10-13T19:02:32.602Z,100.00
2022-10-13T19:05:02.758Z,100.00
2022-10-13T19:07:39.045Z,100.00
2022-10-13T19:10:10.732Z,100.00
2022-10-13T19:12:40.923Z,100.00
2022-10-13T19:15:17.559Z,100.00
2022-10-13T19:17:48.062Z,100.00
2022-10-13T19:20:18.722Z,100.00
2022-10-13T19:22:52.263Z,100.00
2022-10-13T19:25:23.001Z,100.00
2022-10-13T19:27:53.183Z,100.00
2022-10-13T19:30:26.278Z,100.00
2022-10-13T19:32:57.318Z,100.00
2022-10-13T19:35:27.612Z,100.00
2022-10-13T19:38:00.687Z,100.00
2022-10-13T19:40:31.978Z,100.00
2022-10-13T19:43:02.215Z,100.00
2022-10-13T19:45:35.811Z,100.00
2022-10-13T19:48:10.612Z,100.00
2022-10-13T19:50:41.929Z,100.00
2022-10-13T19:53:19.665Z,100.00
2022-10-13T19:55:51.517Z,100.00
2022-10-13T19:58:21.951Z,100.00
2022-10-13T20:00:53.251Z,100.00
2022-10-13T20:03:23.559Z,100.00
2022-10-13T20:05:54.371Z,100.00
2022-10-13T20:08:27.571Z,100.00
2022-10-13T20:10:57.602Z,100.00
2022-10-13T20:13:27.814Z,100.00
2022-10-13T20:16:09.297Z,100.00
2022-10-13T20:18:40.624Z,100.00
2022-10-13T20:21:12.890Z,100.00
2022-10-13T20:23:45.707Z,100.00
2022-10-13T20:26:16.681Z,100.00
2022-10-13T20:28:49.103Z,100.00
2022-10-13T20:31:21.383Z,100.00
2022-10-13T20:33:52.586Z,100.00
2022-10-13T20:36:23.724Z,100.00
2022-10-13T20:38:57.261Z,100.00
2022-10-13T20:41:30.259Z,100.00
2022-10-13T20:44:02.167Z,100.00
2022-10-13T20:46:35.942Z,100.00
2022-10-13T20:49:10.928Z,100.00
2022-10-13T20:51:43.516Z,100.00
2022-10-13T20:54:18.323Z,100.00
2022-10-13T20:56:48.662Z,100.00
2022-10-13T20:59:19.173Z,100.00
2022-10-13T21:01:49.653Z,100.00
2022-10-13T21:04:20.142Z,100.00
2022-10-13T21:06:50.448Z,100.00
2022-10-13T21:09:23.620Z,100.00
2022-10-13T21:11:53.941Z,100.00
2022-10-13T21:14:24.448Z,100.00
2022-10-13T21:16:55.012Z,100.00
2022-10-13T21:19:24.990Z,100.00
2022-10-13T21:21:55.360Z,100.00
2022-10-13T21:24:28.161Z,100.00
2022-10-13T21:26:58.507Z,100.00
2022-10-13T21:29:28.730Z,100.00
2022-10-13T21:31:59.009Z,100.00
2022-10-13T21:34:29.257Z,100.00
2022-10-13T21:36:59.485Z,100.00
2022-10-13T21:39:32.157Z,100.00
2022-10-13T21:42:02.350Z,100.00
2022-10-13T21:44:32.683Z,100.00
2022-10-13T21:47:02.788Z,100.00
2022-10-13T21:49:33.015Z,100.00
2022-10-13T21:52:03.222Z,100.00
2022-10-13T21:54:36.403Z,100.00
2022-10-13T21:57:06.843Z,100.00
2022-10-13T21:59:37.263Z,100.00
2022-10-13T22:02:07.784Z,100.00
2022-10-13T22:04:38.402Z,100.00
2022-10-13T22:07:09.095Z,100.00
2022-10-13T22:09:42.203Z,100.00
2022-10-13T22:12:12.487Z,100.00
2022-10-13T22:14:42.679Z,100.00
2022-10-13T22:17:13.143Z,100.00
2022-10-13T22:19:43.231Z,100.00
2022-10-13T22:22:13.280Z,100.00
2022-10-13T22:24:46.711Z,100.00
2022-10-13T22:27:16.768Z,100.00
2022-10-13T22:29:46.985Z,100.00
2022-10-13T22:32:17.167Z,100.00
2022-10-13T22:34:47.304Z,100.00
2022-10-13T22:37:18.198Z,100.00
2022-10-13T22:39:51.178Z,100.00
2022-10-13T22:42:21.510Z,100.00
2022-10-13T22:44:51.871Z,100.00
2022-10-13T22:47:22.703Z,100.00
2022-10-13T22:49:53.558Z,100.00
2022-10-13T22:52:23.694Z,100.00
2022-10-13T22:54:59.290Z,100.00
2022-10-13T22:57:29.464Z,100.00
2022-10-13T23:00:00.776Z,100.00
2022-10-13T23:02:31.508Z,100.00
2022-10-13T23:05:01.840Z,100.00
2022-10-13T23:07:32.363Z,100.00
2022-10-13T23:10:05.690Z,100.00
2022-10-13T23:12:36.007Z,100.00
2022-10-13T23:15:06.619Z,100.00
2022-10-13T23:17:36.973Z,100.00
2022-10-13T23:20:07.982Z,100.00
2022-10-13T23:22:38.283Z,100.00
2022-10-13T23:25:12.018Z,100.00
2022-10-13T23:27:43.919Z,100.00
2022-10-13T23:30:15.852Z,100.00
2022-10-13T23:32:46.227Z,100.00
2022-10-13T23:35:16.542Z,100.00
2022-10-13T23:37:47.121Z,100.00
2022-10-13T23:40:19.763Z,100.00
2022-10-13T23:42:49.799Z,100.00
2022-10-13T23:45:21.124Z,100.00
2022-10-13T23:47:51.506Z,100.00
2022-10-13T23:50:21.972Z,100.00
2022-10-13T23:52:52.110Z,100.00
2022-10-13T23:55:25.431Z,100.00
2022-10-13T23:57:55.683Z,100.00
